sensor_id;sensor_type;location;lat;lon;timestamp;P1;durP1;ratioP1;P2;durP2;ratioP2
8885;SDS011;4479;51.162;13.906;2023-02-28T00:09:01;3.50;;;2.47;;
8885;SDS011;4479;51.162;13.906;2023-02-28T00:19:03;4.07;;;2.80;;
8885;SDS011;4479;51.162;13.906;2023-02-28T00:29:06;4.43;;;2.93;;
8885;SDS011;4479;51.162;13.906;2023-02-28T00:39:08;4.33;;;2.60;;
8885;SDS011;4479;51.162;13.906;2023-02-28T00:49:12;4.40;;;2.93;;
8885;SDS011;4479;51.162;13.906;2023-02-28T00:59:17;4.37;;;3.23;;
8885;SDS011;4479;51.162;13.906;2023-02-28T01:09:20;4.90;;;2.90;;
8885;SDS011;4479;51.162;13.906;2023-02-28T01:19:22;4.80;;;2.90;;
8885;SDS011;4479;51.162;13.906;2023-02-28T01:29:26;4.40;;;2.80;;
8885;SDS011;4479;51.162;13.906;2023-02-28T01:39:28;4.23;;;3.00;;
8885;SDS011;4479;51.162;13.906;2023-02-28T01:49:32;4.37;;;2.70;;
8885;SDS011;4479;51.162;13.906;2023-02-28T01:59:35;5.07;;;3.20;;
8885;SDS011;4479;51.162;13.906;2023-02-28T02:09:47;3.07;;;2.67;;
8885;SDS011;4479;51.162;13.906;2023-02-28T02:30:43;4.23;;;2.80;;
8885;SDS011;4479;51.162;13.906;2023-02-28T02:41:34;4.37;;;2.90;;
8885;SDS011;4479;51.162;13.906;2023-02-28T02:51:42;3.50;;;2.60;;
8885;SDS011;4479;51.162;13.906;2023-02-28T03:01:50;4.30;;;2.77;;
8885;SDS011;4479;51.162;13.906;2023-02-28T03:11:55;4.10;;;3.03;;
8885;SDS011;4479;51.162;13.906;2023-02-28T03:22:07;4.87;;;3.10;;
8885;SDS011;4479;51.162;13.906;2023-02-28T03:32:47;3.90;;;2.87;;
8885;SDS011;4479;51.162;13.906;2023-02-28T03:43:14;4.23;;;2.50;;
8885;SDS011;4479;51.162;13.906;2023-02-28T03:53:44;3.93;;;2.67;;
8885;SDS011;4479;51.162;13.906;2023-02-28T04:04:47;3.70;;;2.87;;
8885;SDS011;4479;51.162;13.906;2023-02-28T04:14:49;5.47;;;3.30;;
8885;SDS011;4479;51.162;13.906;2023-02-28T04:24:53;4.30;;;3.33;;
8885;SDS011;4479;51.162;13.906;2023-02-28T04:34:55;4.80;;;3.10;;
8885;SDS011;4479;51.162;13.906;2023-02-28T04:44:59;4.43;;;3.00;;
8885;SDS011;4479;51.162;13.906;2023-02-28T04:55:01;6.83;;;3.57;;
8885;SDS011;4479;51.162;13.906;2023-02-28T05:05:05;4.30;;;2.90;;
8885;SDS011;4479;51.162;13.906;2023-02-28T05:15:08;5.43;;;3.57;;
8885;SDS011;4479;51.162;13.906;2023-02-28T05:25:13;6.53;;;3.33;;
8885;SDS011;4479;51.162;13.906;2023-02-28T05:35:19;6.10;;;3.77;;
8885;SDS011;4479;51.162;13.906;2023-02-28T05:45:23;5.87;;;3.73;;
8885;SDS011;4479;51.162;13.906;2023-02-28T05:55:25;4.63;;;3.27;;
8885;SDS011;4479;51.162;13.906;2023-02-28T06:05:28;5.27;;;3.80;;
8885;SDS011;4479;51.162;13.906;2023-02-28T06:15:30;7.23;;;3.90;;
8885;SDS011;4479;51.162;13.906;2023-02-28T06:25:34;7.57;;;4.73;;
8885;SDS011;4479;51.162;13.906;2023-02-28T06:35:37;8.77;;;5.30;;
8885;SDS011;4479;51.162;13.906;2023-02-28T06:45:43;7.80;;;4.80;;
8885;SDS011;4479;51.162;13.906;2023-02-28T06:55:45;8.57;;;5.47;;
8885;SDS011;4479;51.162;13.906;2023-02-28T07:05:49;11.30;;;5.13;;
8885;SDS011;4479;51.162;13.906;2023-02-28T07:15:54;8.57;;;5.43;;
8885;SDS011;4479;51.162;13.906;2023-02-28T07:25:58;8.53;;;4.60;;
8885;SDS011;4479;51.162;13.906;2023-02-28T07:36:01;6.57;;;4.37;;
8885;SDS011;4479;51.162;13.906;2023-02-28T07:46:06;7.50;;;4.87;;
8885;SDS011;4479;51.162;13.906;2023-02-28T07:56:11;7.10;;;4.53;;
8885;SDS011;4479;51.162;13.906;2023-02-28T08:06:19;9.73;;;4.80;;
8885;SDS011;4479;51.162;13.906;2023-02-28T08:16:22;11.60;;;5.13;;
8885;SDS011;4479;51.162;13.906;2023-02-28T08:26:26;8.33;;;4.63;;
8885;SDS011;4479;51.162;13.906;2023-02-28T08:36:28;7.70;;;5.10;;
8885;SDS011;4479;51.162;13.906;2023-02-28T08:46:32;7.73;;;4.67;;
8885;SDS011;4479;51.162;13.906;2023-02-28T08:56:34;9.00;;;4.70;;
8885;SDS011;4479;51.162;13.906;2023-02-28T09:06:37;7.50;;;4.80;;
8885;SDS011;4479;51.162;13.906;2023-02-28T09:16:39;6.57;;;4.67;;
8885;SDS011;4479;51.162;13.906;2023-02-28T09:26:43;8.70;;;6.10;;
8885;SDS011;4479;51.162;13.906;2023-02-28T09:36:45;9.03;;;5.97;;
8885;SDS011;4479;51.162;13.906;2023-02-28T09:46:51;8.23;;;5.60;;
8885;SDS011;4479;51.162;13.906;2023-02-28T09:56:58;9.73;;;5.83;;
8885;SDS011;4479;51.162;13.906;2023-02-28T10:07:10;10.33;;;6.53;;
8885;SDS011;4479;51.162;13.906;2023-02-28T10:17:23;11.13;;;7.13;;
8885;SDS011;4479;51.162;13.906;2023-02-28T10:27:41;12.60;;;7.80;;
8885;SDS011;4479;51.162;13.906;2023-02-28T10:37:45;10.70;;;7.67;;
8885;SDS011;4479;51.162;13.906;2023-02-28T10:47:51;10.43;;;7.90;;
8885;SDS011;4479;51.162;13.906;2023-02-28T10:57:56;11.33;;;8.20;;
8885;SDS011;4479;51.162;13.906;2023-02-28T11:08:02;12.37;;;7.80;;
8885;SDS011;4479;51.162;13.906;2023-02-28T11:18:18;33.07;;;20.83;;
8885;SDS011;4479;51.162;13.906;2023-02-28T11:28:28;15.00;;;11.30;;
8885;SDS011;4479;51.162;13.906;2023-02-28T11:38:32;13.37;;;8.60;;
8885;SDS011;4479;51.162;13.906;2023-02-28T11:48:40;11.93;;;8.27;;
8885;SDS011;4479;51.162;13.906;2023-02-28T11:58:55;16.47;;;8.90;;
8885;SDS011;4479;51.162;13.906;2023-02-28T12:09:24;12.27;;;8.73;;
8885;SDS011;4479;51.162;13.906;2023-02-28T12:19:52;26.73;;;11.57;;
8885;SDS011;4479;51.162;13.906;2023-02-28T12:30:12;18.87;;;10.33;;
8885;SDS011;4479;51.162;13.906;2023-02-28T12:40:20;18.73;;;10.63;;
8885;SDS011;4479;51.162;13.906;2023-02-28T12:50:27;15.37;;;10.50;;
8885;SDS011;4479;51.162;13.906;2023-02-28T13:00:33;14.83;;;10.07;;
8885;SDS011;4479;51.162;13.906;2023-02-28T13:10:39;13.83;;;9.93;;
8885;SDS011;4479;51.162;13.906;2023-02-28T13:20:47;14.03;;;9.40;;
8885;SDS011;4479;51.162;13.906;2023-02-28T13:31:05;12.87;;;8.87;;
8885;SDS011;4479;51.162;13.906;2023-02-28T13:41:40;12.87;;;9.70;;
8885;SDS011;4479;51.162;13.906;2023-02-28T13:51:49;16.73;;;10.47;;
8885;SDS011;4479;51.162;13.906;2023-02-28T14:01:56;12.80;;;9.23;;
8885;SDS011;4479;51.162;13.906;2023-02-28T14:23:06;12.60;;;8.67;;
8885;SDS011;4479;51.162;13.906;2023-02-28T14:33:27;11.60;;;8.33;;
8885;SDS011;4479;51.162;13.906;2023-02-28T14:43:47;12.87;;;8.47;;
8885;SDS011;4479;51.162;13.906;2023-02-28T14:53:57;13.47;;;8.60;;
8885;SDS011;4479;51.162;13.906;2023-02-28T15:04:03;12.83;;;7.63;;
8885;SDS011;4479;51.162;13.906;2023-02-28T15:14:13;11.03;;;7.77;;
8885;SDS011;4479;51.162;13.906;2023-02-28T15:24:21;11.40;;;7.30;;
8885;SDS011;4479;51.162;13.906;2023-02-28T15:34:35;10.10;;;7.00;;
8885;SDS011;4479;51.162;13.906;2023-02-28T15:44:39;10.80;;;6.97;;
8885;SDS011;4479;51.162;13.906;2023-02-28T15:54:43;10.43;;;7.40;;
8885;SDS011;4479;51.162;13.906;2023-02-28T16:04:54;10.83;;;7.27;;
8885;SDS011;4479;51.162;13.906;2023-02-28T16:15:01;12.77;;;7.53;;
8885;SDS011;4479;51.162;13.906;2023-02-28T16:25:10;10.90;;;6.77;;
8885;SDS011;4479;51.162;13.906;2023-02-28T16:35:15;13.03;;;6.77;;
8885;SDS011;4479;51.162;13.906;2023-02-28T16:45:19;9.50;;;6.03;;
8885;SDS011;4479;51.162;13.906;2023-02-28T16:55:25;10.07;;;6.20;;
8885;SDS011;4479;51.162;13.906;2023-02-28T17:05:28;8.87;;;5.67;;
8885;SDS011;4479;51.162;13.906;2023-02-28T17:15:36;10.43;;;6.33;;
8885;SDS011;4479;51.162;13.906;2023-02-28T17:25:39;8.33;;;5.50;;
8885;SDS011;4479;51.162;13.906;2023-02-28T17:35:54;15.97;;;9.47;;
8885;SDS011;4479;51.162;13.906;2023-02-28T17:45:56;15.27;;;7.37;;
8885;SDS011;4479;51.162;13.906;2023-02-28T17:56:00;12.57;;;7.20;;
8885;SDS011;4479;51.162;13.906;2023-02-28T18:06:02;14.07;;;6.80;;
8885;SDS011;4479;51.162;13.906;2023-02-28T18:16:09;11.57;;;6.80;;
8885;SDS011;4479;51.162;13.906;2023-02-28T18:26:17;10.87;;;6.10;;
8885;SDS011;4479;51.162;13.906;2023-02-28T18:36:29;43.37;;;18.73;;
8885;SDS011;4479;51.162;13.906;2023-02-28T18:46:31;23.07;;;12.37;;
8885;SDS011;4479;51.162;13.906;2023-02-28T18:56:36;14.93;;;7.67;;
8885;SDS011;4479;51.162;13.906;2023-02-28T19:06:38;12.10;;;7.97;;
8885;SDS011;4479;51.162;13.906;2023-02-28T19:16:42;22.93;;;14.40;;
8885;SDS011;4479;51.162;13.906;2023-02-28T19:26:46;21.37;;;10.90;;
8885;SDS011;4479;51.162;13.906;2023-02-28T19:36:49;18.93;;;11.17;;
8885;SDS011;4479;51.162;13.906;2023-02-28T19:46:51;15.13;;;9.33;;
8885;SDS011;4479;51.162;13.906;2023-02-28T19:56:55;12.40;;;7.83;;
8885;SDS011;4479;51.162;13.906;2023-02-28T20:06:57;13.30;;;9.03;;
8885;SDS011;4479;51.162;13.906;2023-02-28T20:17:01;16.63;;;9.20;;
8885;SDS011;4479;51.162;13.906;2023-02-28T20:27:03;14.67;;;9.60;;
8885;SDS011;4479;51.162;13.906;2023-02-28T20:37:08;14.57;;;9.20;;
8885;SDS011;4479;51.162;13.906;2023-02-28T20:47:11;13.30;;;8.87;;
8885;SDS011;4479;51.162;13.906;2023-02-28T20:57:14;10.97;;;7.37;;
8885;SDS011;4479;51.162;13.906;2023-02-28T21:07:16;11.20;;;7.37;;
8885;SDS011;4479;51.162;13.906;2023-02-28T21:17:20;11.03;;;7.00;;
8885;SDS011;4479;51.162;13.906;2023-02-28T21:27:22;14.47;;;9.07;;
8885;SDS011;4479;51.162;13.906;2023-02-28T21:37:26;45.00;;;19.73;;
8885;SDS011;4479;51.162;13.906;2023-02-28T21:47:28;13.33;;;8.17;;
8885;SDS011;4479;51.162;13.906;2023-02-28T21:57:32;12.53;;;7.50;;
8885;SDS011;4479;51.162;13.906;2023-02-28T22:07:34;17.47;;;8.67;;
8885;SDS011;4479;51.162;13.906;2023-02-28T22:17:42;10.03;;;6.20;;
8885;SDS011;4479;51.162;13.906;2023-02-28T22:27:44;10.63;;;5.47;;
8885;SDS011;4479;51.162;13.906;2023-02-28T22:37:47;55.17;;;26.33;;
8885;SDS011;4479;51.162;13.906;2023-02-28T22:47:49;22.10;;;13.17;;
8885;SDS011;4479;51.162;13.906;2023-02-28T22:57:53;14.40;;;8.47;;
8885;SDS011;4479;51.162;13.906;2023-02-28T23:07:55;9.40;;;5.60;;
8885;SDS011;4479;51.162;13.906;2023-02-28T23:17:58;8.37;;;5.53;;
8885;SDS011;4479;51.162;13.906;2023-02-28T23:28:00;9.30;;;5.70;;
8885;SDS011;4479;51.162;13.906;2023-02-28T23:38:04;9.83;;;6.00;;
8885;SDS011;4479;51.162;13.906;2023-02-28T23:48:06;8.43;;;5.50;;
8885;SDS011;4479;51.162;13.906;2023-02-28T23:58:10;9.57;;;5.87;;
